createdAt,value
2022-11-27T00:01:54.543Z,18.48
2022-11-27T00:04:26.000Z,20.58
2022-11-27T00:06:57.123Z,22.35
2022-11-27T00:09:27.616Z,25.15
2022-11-27T00:11:58.457Z,27.48
2022-11-27T00:14:29.602Z,50.35
2022-11-27T00:17:01.447Z,26.33
2022-11-27T00:19:32.118Z,30.08
2022-11-27T00:22:02.571Z,23.88
2022-11-27T00:24:33.394Z,67.25
2022-11-27T00:27:04.187Z,49.33
2022-11-27T00:29:35.463Z,23.23
2022-11-27T00:32:09.660Z,14.68
2022-11-27T00:34:40.456Z,15.88
2022-11-27T00:37:11.198Z,14.00
2022-11-27T00:39:41.915Z,12.45
2022-11-27T00:42:12.402Z,12.70
2022-11-27T00:44:42.513Z,13.18
2022-11-27T00:47:12.642Z,17.25
2022-11-27T00:49:43.099Z,12.07
2022-11-27T00:52:14.457Z,10.23
2022-11-27T00:54:44.580Z,10.43
2022-11-27T00:57:14.643Z,9.07
2022-11-27T00:59:45.519Z,13.75
2022-11-27T01:02:16.070Z,14.10
2022-11-27T01:04:51.019Z,13.07
2022-11-27T01:07:21.678Z,15.15
2022-11-27T01:09:52.246Z,9.15
2022-11-27T01:12:22.393Z,8.05
2022-11-27T01:14:53.658Z,7.53
2022-11-27T01:17:24.238Z,8.55
2022-11-27T01:19:54.733Z,7.95
2022-11-27T01:22:25.374Z,8.73
2022-11-27T01:24:56.132Z,8.38
2022-11-27T01:27:26.583Z,7.45
2022-11-27T01:29:56.969Z,7.10
2022-11-27T01:32:28.188Z,6.18
2022-11-27T01:34:58.642Z,6.53
2022-11-27T01:37:29.408Z,5.78
2022-11-27T01:40:00.414Z,7.82
2022-11-27T01:42:30.652Z,8.65
2022-11-27T01:45:01.295Z,6.63
2022-11-27T01:47:40.964Z,6.68
2022-11-27T01:50:27.032Z,7.10
2022-11-27T01:53:02.410Z,6.63
2022-11-27T01:55:46.246Z,6.40
2022-11-27T01:58:23.978Z,6.78
2022-11-27T02:00:54.654Z,6.88
2022-11-27T02:03:25.815Z,6.90
2022-11-27T02:05:56.468Z,6.53
2022-11-27T02:08:27.679Z,6.00
2022-11-27T02:11:17.384Z,6.10
2022-11-27T02:13:57.892Z,6.03
2022-11-27T02:16:56.502Z,5.70
2022-11-27T02:20:02.721Z,5.90
2022-11-27T02:23:12.624Z,6.43
2022-11-27T02:26:21.805Z,5.35
2022-11-27T02:29:15.639Z,5.68
2022-11-27T02:32:11.859Z,6.07
2022-11-27T02:35:01.706Z,6.35
2022-11-27T02:37:53.500Z,6.47
2022-11-27T02:40:43.049Z,6.82
2022-11-27T02:43:20.805Z,7.93
2022-11-27T02:45:54.340Z,5.57
2022-11-27T02:48:32.080Z,6.03
2022-11-27T02:51:04.766Z,7.53
2022-11-27T02:53:59.914Z,15.38
2022-11-27T02:56:31.556Z,10.18
2022-11-27T02:59:05.251Z,7.43
2022-11-27T03:01:42.660Z,7.88
2022-11-27T03:04:36.062Z,8.30
2022-11-27T03:07:14.480Z,8.52
2022-11-27T03:09:52.133Z,8.35
2022-11-27T03:12:22.788Z,8.43
2022-11-27T03:14:53.862Z,8.40
2022-11-27T03:17:58.023Z,7.07
2022-11-27T03:20:33.049Z,7.30
2022-11-27T03:23:03.680Z,7.75
2022-11-27T03:25:34.303Z,7.90
2022-11-27T03:28:07.925Z,7.68
2022-11-27T03:30:39.143Z,15.57
2022-11-27T03:33:09.691Z,15.20
2022-11-27T03:35:40.471Z,7.18
2022-11-27T03:38:10.544Z,7.43
2022-11-27T03:41:09.639Z,5.90
2022-11-27T03:43:49.421Z,7.38
2022-11-27T03:46:46.464Z,7.68
2022-11-27T03:49:46.091Z,6.38
2022-11-27T03:52:48.094Z,7.45
2022-11-27T03:55:46.366Z,7.95
2022-11-27T03:58:38.530Z,8.55
2022-11-27T04:01:14.838Z,8.70
2022-11-27T04:03:45.459Z,8.52
2022-11-27T04:06:16.015Z,6.85
2022-11-27T04:08:47.617Z,6.80
2022-11-27T04:11:19.110Z,7.13
2022-11-27T04:13:49.560Z,6.15
2022-11-27T04:16:20.735Z,13.40
2022-11-27T04:18:52.262Z,12.98
2022-11-27T04:21:23.610Z,13.25
2022-11-27T04:23:54.459Z,11.88
2022-11-27T04:26:26.186Z,12.25
2022-11-27T04:28:56.590Z,6.60
2022-11-27T04:31:27.472Z,8.10
2022-11-27T04:33:58.548Z,6.93
2022-11-27T04:36:29.321Z,6.13
2022-11-27T04:38:59.665Z,5.70
2022-11-27T04:41:30.864Z,6.70
2022-11-27T04:44:01.607Z,6.28
2022-11-27T04:46:32.330Z,8.30
2022-11-27T04:49:03.132Z,5.75
2022-11-27T04:51:33.691Z,6.05
2022-11-27T04:54:04.798Z,6.20
2022-11-27T04:56:35.195Z,5.95
2022-11-27T04:59:06.008Z,4.75
2022-11-27T05:01:37.396Z,5.45
2022-11-27T05:04:08.909Z,5.07
2022-11-27T05:06:39.686Z,7.32
2022-11-27T05:09:10.634Z,4.65
2022-11-27T05:11:41.399Z,5.10
2022-11-27T05:14:18.512Z,5.00
2022-11-27T05:16:54.209Z,5.32
2022-11-27T05:19:26.224Z,5.38
2022-11-27T05:21:56.776Z,5.40
2022-11-27T05:24:29.921Z,4.97
2022-11-27T05:27:00.521Z,5.90
2022-11-27T05:29:31.309Z,5.40
2022-11-27T05:32:02.023Z,6.43
2022-11-27T05:34:32.433Z,5.22
2022-11-27T05:37:03.118Z,5.60
2022-11-27T05:39:33.229Z,6.47
2022-11-27T05:42:03.577Z,6.10
2022-11-27T05:44:34.139Z,6.22
2022-11-27T05:47:05.038Z,6.63
2022-11-27T05:49:35.606Z,5.45
2022-11-27T05:52:06.541Z,5.70
2022-11-27T05:54:37.018Z,6.47
2022-11-27T05:57:07.548Z,6.28
2022-11-27T05:59:37.990Z,6.47
2022-11-27T06:02:08.836Z,5.55
2022-11-27T06:04:39.563Z,6.70
2022-11-27T06:07:10.417Z,6.30
2022-11-27T06:09:40.960Z,6.60
2022-11-27T06:12:11.444Z,5.45
2022-11-27T06:14:41.869Z,5.00
2022-11-27T06:17:12.950Z,5.30
2022-11-27T06:19:43.972Z,5.80
2022-11-27T06:22:14.635Z,9.38
2022-11-27T06:24:46.739Z,7.43
2022-11-27T06:27:17.309Z,6.72
2022-11-27T06:29:48.078Z,6.55
2022-11-27T06:32:18.722Z,7.60
2022-11-27T06:34:49.148Z,6.35
2022-11-27T06:37:19.713Z,6.10
2022-11-27T06:39:52.004Z,6.47
2022-11-27T06:42:22.743Z,6.90
2022-11-27T06:44:53.030Z,6.75
2022-11-27T06:47:24.001Z,6.60
2022-11-27T06:49:54.799Z,7.18
2022-11-27T06:52:25.580Z,8.02
2022-11-27T06:54:56.319Z,7.47
2022-11-27T06:57:26.771Z,7.38
2022-11-27T06:59:57.465Z,8.95
2022-11-27T07:02:27.913Z,8.70
2022-11-27T07:04:58.334Z,9.10
2022-11-27T07:07:28.896Z,8.57
2022-11-27T07:09:59.504Z,8.65
2022-11-27T07:12:30.043Z,11.18
2022-11-27T07:15:04.060Z,11.05
2022-11-27T07:17:35.458Z,8.38
2022-11-27T07:20:06.307Z,8.60
2022-11-27T07:22:37.364Z,9.85
2022-11-27T07:25:08.671Z,7.88
2022-11-27T07:27:39.537Z,6.90
2022-11-27T07:30:10.597Z,6.22
2022-11-27T07:32:41.376Z,5.25
2022-11-27T07:35:12.378Z,6.68
2022-11-27T07:37:42.788Z,6.60
2022-11-27T07:40:14.975Z,6.75
2022-11-27T07:42:45.195Z,6.40
2022-11-27T07:45:15.699Z,7.25
2022-11-27T07:47:46.177Z,6.47
2022-11-27T07:50:16.499Z,5.30
2022-11-27T07:52:47.127Z,5.53
2022-11-27T07:55:17.904Z,5.22
2022-11-27T07:57:48.343Z,4.40
2022-11-27T08:00:19.613Z,4.95
2022-11-27T08:02:50.126Z,5.00
2022-11-27T08:05:20.845Z,4.97
2022-11-27T08:07:51.756Z,4.70
2022-11-27T08:10:22.601Z,5.95
2022-11-27T08:12:53.403Z,4.85
2022-11-27T08:15:24.370Z,5.03
2022-11-27T08:17:55.200Z,5.00
2022-11-27T08:20:26.877Z,4.90
2022-11-27T08:23:02.488Z,4.63
2022-11-27T08:25:33.938Z,5.28
2022-11-27T08:28:04.395Z,6.05
2022-11-27T08:30:35.093Z,5.45
2022-11-27T08:33:05.226Z,5.38
2022-11-27T08:35:35.709Z,6.68
2022-11-27T08:38:06.402Z,6.68
2022-11-27T08:40:37.060Z,5.95
2022-11-27T08:43:07.467Z,5.55
2022-11-27T08:45:41.690Z,6.18
2022-11-27T08:48:11.868Z,4.97
2022-11-27T08:50:42.585Z,5.20
2022-11-27T08:53:13.535Z,6.03
2022-11-27T08:55:44.634Z,5.70
2022-11-27T08:58:15.172Z,5.63
2022-11-27T09:00:45.518Z,5.28
2022-11-27T09:03:16.126Z,5.20
2022-11-27T09:05:46.837Z,7.55
2022-11-27T09:08:21.960Z,8.32
2022-11-27T09:10:52.606Z,8.02
2022-11-27T09:13:23.407Z,6.68
2022-11-27T09:15:53.320Z,5.93
2022-11-27T09:18:23.782Z,7.85
2022-11-27T09:21:09.368Z,10.60
2022-11-27T09:23:39.520Z,9.90
2022-11-27T09:26:18.903Z,10.75
2022-11-27T09:28:49.853Z,10.30
2022-11-27T09:31:20.810Z,8.20
2022-11-27T09:33:52.472Z,7.05
2022-11-27T09:36:25.954Z,5.55
2022-11-27T09:38:57.096Z,6.30
2022-11-27T09:41:55.144Z,6.80
2022-11-27T09:44:50.038Z,6.05
2022-11-27T09:47:32.012Z,6.25
2022-11-27T09:50:16.457Z,6.65
2022-11-27T09:52:56.471Z,6.63
2022-11-27T09:55:51.581Z,7.15
2022-11-27T09:58:42.588Z,5.97
2022-11-27T10:01:32.088Z,6.28
2022-11-27T10:04:05.989Z,6.20
2022-11-27T10:07:15.592Z,5.75
2022-11-27T10:10:05.239Z,4.60
2022-11-27T10:13:01.501Z,5.07
2022-11-27T10:16:06.189Z,5.50
2022-11-27T10:19:15.560Z,8.32
2022-11-27T10:22:10.532Z,10.13
2022-11-27T10:25:04.619Z,6.80
2022-11-27T10:27:58.540Z,7.35
2022-11-27T10:30:31.303Z,7.40
2022-11-27T10:33:03.765Z,6.30
2022-11-27T10:35:35.401Z,8.02
2022-11-27T10:38:21.574Z,5.63
2022-11-27T10:41:34.281Z,6.78
2022-11-27T10:44:38.214Z,6.70
2022-11-27T10:47:13.584Z,7.30
2022-11-27T10:49:44.997Z,7.30
2022-11-27T10:52:19.103Z,8.00
2022-11-27T10:55:05.501Z,8.02
2022-11-27T10:57:59.540Z,8.82
2022-11-27T11:00:30.876Z,8.80
2022-11-27T11:03:06.798Z,9.88
2022-11-27T11:06:18.514Z,9.23
2022-11-27T11:08:30.711Z,8.80
2022-11-27T11:11:04.676Z,8.13
2022-11-27T11:13:49.110Z,7.53
2022-11-27T11:16:35.410Z,7.85
2022-11-27T11:19:10.100Z,9.25
2022-11-27T11:21:46.625Z,9.70
2022-11-27T11:24:40.172Z,9.23
2022-11-27T11:27:25.532Z,9.82
2022-11-27T11:30:07.614Z,11.27
2022-11-27T11:32:42.546Z,12.05
2022-11-27T11:35:33.790Z,11.57
2022-11-27T11:38:07.487Z,12.13
2022-11-27T11:40:39.846Z,12.27
2022-11-27T11:43:28.139Z,12.48
2022-11-27T11:46:17.883Z,12.10
2022-11-27T11:48:59.951Z,11.73
2022-11-27T11:52:01.958Z,11.85
2022-11-27T11:54:45.374Z,12.43
2022-11-27T11:57:54.907Z,13.57
2022-11-27T12:00:32.344Z,14.82
2022-11-27T12:03:34.451Z,14.02
2022-11-27T12:06:37.508Z,15.30
2022-11-27T12:09:41.492Z,14.63
2022-11-27T12:12:50.826Z,13.70
2022-11-27T12:15:44.073Z,13.23
2022-11-27T12:18:37.053Z,14.10
2022-11-27T12:21:24.572Z,13.95
2022-11-27T12:24:25.782Z,15.80
2022-11-27T12:27:35.441Z,17.85
2022-11-27T12:30:30.686Z,15.50
2022-11-27T12:33:39.962Z,16.02
2022-11-27T12:36:38.048Z,14.30
2022-11-27T12:39:47.950Z,13.82
2022-11-27T12:42:45.788Z,15.30
2022-11-27T12:45:38.805Z,14.65
2022-11-27T12:48:19.522Z,16.10
2022-11-27T12:51:01.058Z,20.27
2022-11-27T12:53:40.557Z,16.10
2022-11-27T12:56:50.137Z,17.17
2022-11-27T12:59:44.831Z,18.42
2022-11-27T13:02:44.289Z,18.38
2022-11-27T13:05:24.308Z,19.25
2022-11-27T13:08:16.056Z,18.85
2022-11-27T13:10:56.301Z,19.85
2022-11-27T13:13:46.339Z,18.13
2022-11-27T13:16:46.944Z,19.33
2022-11-27T13:19:43.926Z,21.02
2022-11-27T13:22:36.341Z,19.75
2022-11-27T13:25:06.879Z,20.52
2022-11-27T13:27:39.362Z,22.60
2022-11-27T13:30:20.105Z,26.63
2022-11-27T13:33:00.879Z,26.45
2022-11-27T13:35:45.019Z,25.77
2022-11-27T13:38:26.157Z,24.60
2022-11-27T13:40:59.206Z,23.33
2022-11-27T13:43:49.864Z,24.17
2022-11-27T13:46:33.561Z,23.63
2022-11-27T13:49:06.775Z,24.20
2022-11-27T13:51:40.884Z,25.25
2022-11-27T13:54:18.568Z,25.98
2022-11-27T13:56:49.738Z,23.73
2022-11-27T13:59:24.074Z,29.20
2022-11-27T14:02:06.843Z,25.73
2022-11-27T14:04:55.624Z,27.10
2022-11-27T14:07:37.046Z,24.95
2022-11-27T14:10:21.905Z,25.70
2022-11-27T14:13:03.261Z,38.63
2022-11-27T14:15:37.870Z,54.90
2022-11-27T14:18:27.580Z,53.70
2022-11-27T14:21:05.696Z,25.63
2022-11-27T14:23:50.047Z,26.75
2022-11-27T14:26:24.825Z,26.92
2022-11-27T14:28:57.538Z,25.83
2022-11-27T14:31:37.530Z,24.52
2022-11-27T14:34:15.514Z,23.88
2022-11-27T14:36:47.342Z,22.15
2022-11-27T14:39:33.410Z,22.85
2022-11-27T14:42:10.291Z,23.13
2022-11-27T14:44:41.131Z,23.60
2022-11-27T14:47:24.289Z,25.23
2022-11-27T14:49:58.302Z,25.67
2022-11-27T14:52:29.653Z,25.08
2022-11-27T14:55:01.023Z,27.65
2022-11-27T14:57:33.303Z,26.52
2022-11-27T15:00:25.818Z,24.58
2022-11-27T15:02:58.184Z,24.80
2022-11-27T15:05:30.863Z,27.50
2022-11-27T15:08:03.219Z,26.95
2022-11-27T15:10:42.088Z,27.23
2022-11-27T15:13:25.760Z,26.15
2022-11-27T15:16:05.885Z,24.55
2022-11-27T15:18:42.039Z,25.75
2022-11-27T15:21:17.612Z,27.55
2022-11-27T15:23:51.213Z,24.13
2022-11-27T15:26:46.628Z,26.70
2022-11-27T15:29:38.591Z,28.52
2022-11-27T15:32:30.010Z,27.90
2022-11-27T15:35:00.172Z,29.08
2022-11-27T15:37:34.161Z,28.27
2022-11-27T15:40:05.409Z,28.25
2022-11-27T15:42:35.532Z,26.65
2022-11-27T15:45:12.705Z,28.55
2022-11-27T15:47:43.486Z,30.48
2022-11-27T15:50:18.441Z,32.22
2022-11-27T15:52:49.938Z,29.52
2022-11-27T15:55:20.354Z,33.28
2022-11-27T15:57:51.545Z,33.97
2022-11-27T16:00:23.661Z,32.25
2022-11-27T16:02:54.321Z,31.85
2022-11-27T16:05:25.519Z,32.33
2022-11-27T16:07:56.939Z,32.35
2022-11-27T16:10:27.674Z,35.10
2022-11-27T16:12:59.212Z,34.15
2022-11-27T16:15:32.997Z,37.08
2022-11-27T16:18:03.674Z,37.05
2022-11-27T16:20:34.886Z,38.05
2022-11-27T16:23:05.716Z,36.60
2022-11-27T16:25:35.913Z,37.90
2022-11-27T16:28:06.715Z,37.85
2022-11-27T16:30:37.245Z,36.90
2022-11-27T16:33:08.101Z,35.72
2022-11-27T16:35:39.623Z,34.88
2022-11-27T16:38:11.541Z,43.50
2022-11-27T16:40:41.967Z,35.65
2022-11-27T16:43:12.667Z,35.33
2022-11-27T16:45:43.052Z,36.70
2022-11-27T16:48:13.697Z,33.80
2022-11-27T16:50:44.530Z,33.80
2022-11-27T16:53:15.747Z,32.63
2022-11-27T16:55:46.635Z,33.55
2022-11-27T16:58:16.764Z,33.08
2022-11-27T17:00:47.600Z,33.40
2022-11-27T17:03:18.244Z,31.67
2022-11-27T17:05:51.461Z,33.97
2022-11-27T17:08:21.866Z,35.40
2022-11-27T17:10:52.047Z,36.22
2022-11-27T17:13:25.838Z,34.08
2022-11-27T17:15:56.504Z,33.95
2022-11-27T17:18:27.496Z,33.72
2022-11-27T17:21:04.684Z,33.75
2022-11-27T17:23:36.273Z,36.75
2022-11-27T17:26:14.392Z,37.40
2022-11-27T17:28:46.477Z,38.30
2022-11-27T17:31:26.151Z,36.15
2022-11-27T17:33:58.432Z,36.58
2022-11-27T17:36:36.500Z,35.88
2022-11-27T17:39:08.805Z,34.95
2022-11-27T17:41:39.333Z,35.88
2022-11-27T17:44:10.397Z,34.13
2022-11-27T17:46:41.575Z,36.17
2022-11-27T17:49:12.737Z,33.55
2022-11-27T17:51:43.185Z,35.65
2022-11-27T17:54:13.929Z,37.10
2022-11-27T17:56:44.441Z,37.65
2022-11-27T17:59:15.242Z,36.45
2022-11-27T18:01:49.958Z,35.72
2022-11-27T18:04:20.985Z,37.30
2022-11-27T18:06:51.233Z,36.30
2022-11-27T18:09:25.656Z,35.85
2022-11-27T18:11:57.142Z,34.92
2022-11-27T18:14:27.682Z,33.13
2022-11-27T18:16:59.739Z,35.33
2022-11-27T18:19:30.206Z,33.95
2022-11-27T18:22:01.751Z,33.58
2022-11-27T18:24:32.800Z,33.20
2022-11-27T18:27:10.547Z,37.20
2022-11-27T18:29:44.419Z,38.85
2022-11-27T18:32:16.950Z,38.72
2022-11-27T18:34:48.318Z,38.00
2022-11-27T18:37:19.229Z,38.88
2022-11-27T18:39:50.538Z,36.50
2022-11-27T18:42:20.934Z,36.20
2022-11-27T18:44:51.184Z,36.25
2022-11-27T18:47:21.320Z,35.22
2022-11-27T18:49:51.545Z,35.42
2022-11-27T18:52:21.984Z,35.00
2022-11-27T18:54:52.695Z,37.47
2022-11-27T18:57:23.561Z,36.85
2022-11-27T18:59:54.416Z,37.45
2022-11-27T19:02:25.809Z,38.10
2022-11-27T19:04:56.644Z,37.97
2022-11-27T19:07:29.683Z,37.22
2022-11-27T19:10:00.543Z,37.13
2022-11-27T19:12:31.461Z,38.45
2022-11-27T19:15:01.927Z,37.22
2022-11-27T19:17:32.701Z,35.95
2022-11-27T19:20:03.889Z,37.47
2022-11-27T19:22:34.894Z,36.60
2022-11-27T19:25:05.681Z,39.53
2022-11-27T19:27:36.617Z,38.65
2022-11-27T19:30:07.313Z,37.30
2022-11-27T19:32:37.760Z,37.63
2022-11-27T19:35:10.690Z,36.75
2022-11-27T19:37:41.432Z,36.90
2022-11-27T19:40:12.691Z,37.33
2022-11-27T19:42:43.102Z,39.65
2022-11-27T19:45:14.195Z,40.97
2022-11-27T19:47:45.465Z,41.60
2022-11-27T19:50:16.836Z,40.25
2022-11-27T19:52:47.831Z,44.45
2022-11-27T19:55:19.461Z,43.95
2022-11-27T19:57:50.759Z,44.20
2022-11-27T20:00:21.874Z,47.47
2022-11-27T20:02:52.467Z,46.30
2022-11-27T20:05:23.557Z,48.63
2022-11-27T20:07:54.498Z,44.78
2022-11-27T20:10:25.125Z,45.35
2022-11-27T20:12:56.112Z,52.15
2022-11-27T20:15:27.102Z,54.28
2022-11-27T20:17:58.198Z,51.20
2022-11-27T20:20:33.874Z,50.58
2022-11-27T20:23:04.323Z,46.95
2022-11-27T20:25:34.887Z,46.17
2022-11-27T20:28:06.091Z,43.25
2022-11-27T20:30:40.324Z,46.97
2022-11-27T20:33:14.602Z,42.83
2022-11-27T20:35:45.881Z,37.28
2022-11-27T20:38:16.849Z,36.35
2022-11-27T20:40:48.054Z,35.28
2022-11-27T20:43:18.556Z,35.78
2022-11-27T20:45:53.415Z,33.92
2022-11-27T20:48:24.031Z,33.05
2022-11-27T20:50:54.942Z,33.92
2022-11-27T20:53:25.957Z,34.28
2022-11-27T20:55:56.310Z,36.47
2022-11-27T20:58:27.177Z,35.75
2022-11-27T21:01:01.314Z,34.90
2022-11-27T21:03:33.512Z,33.63
2022-11-27T21:06:03.656Z,34.10
2022-11-27T21:08:35.722Z,34.22
2022-11-27T21:11:17.715Z,33.15
2022-11-27T21:13:48.148Z,33.50
2022-11-27T21:16:19.135Z,33.25
2022-11-27T21:18:49.584Z,32.20
2022-11-27T21:21:20.285Z,33.15
2022-11-27T21:23:51.658Z,31.83
2022-11-27T21:26:22.863Z,32.85
2022-11-27T21:28:53.248Z,33.75
2022-11-27T21:31:26.407Z,34.72
2022-11-27T21:34:02.393Z,34.95
2022-11-27T21:36:36.504Z,32.30
2022-11-27T21:39:09.768Z,32.72
2022-11-27T21:41:40.444Z,32.40
2022-11-27T21:44:11.978Z,32.53
2022-11-27T21:46:42.537Z,32.67
2022-11-27T21:49:15.562Z,32.15
2022-11-27T21:51:46.740Z,32.50
2022-11-27T21:54:17.523Z,30.50
2022-11-27T21:56:47.736Z,30.35
2022-11-27T21:59:18.004Z,31.27
2022-11-27T22:01:49.055Z,29.92
2022-11-27T22:04:19.918Z,33.67
2022-11-27T22:06:54.030Z,32.88
2022-11-27T22:09:24.894Z,30.45
2022-11-27T22:11:55.663Z,32.55
2022-11-27T22:14:26.148Z,32.70
2022-11-27T22:16:58.489Z,33.13
2022-11-27T22:19:29.223Z,34.60
2022-11-27T22:21:59.281Z,33.13
2022-11-27T22:24:29.769Z,33.33
2022-11-27T22:27:00.132Z,33.65
2022-11-27T22:29:31.464Z,32.92
2022-11-27T22:32:01.596Z,32.45
2022-11-27T22:34:32.405Z,32.47
2022-11-27T22:37:05.224Z,32.60
2022-11-27T22:39:35.615Z,33.97
2022-11-27T22:42:06.139Z,61.03
2022-11-27T22:44:37.109Z,33.70
2022-11-27T22:47:07.538Z,35.42
2022-11-27T22:49:38.480Z,34.88
2022-11-27T22:52:09.200Z,35.58
2022-11-27T22:54:40.970Z,33.10
2022-11-27T22:57:11.618Z,33.78
2022-11-27T22:59:42.915Z,35.50
2022-11-27T23:02:14.179Z,34.22
2022-11-27T23:04:45.492Z,34.35
2022-11-27T23:07:17.785Z,34.78
2022-11-27T23:09:51.961Z,36.78
2022-11-27T23:12:22.632Z,38.33
2022-11-27T23:14:53.183Z,36.72
2022-11-27T23:17:23.264Z,36.53
2022-11-27T23:19:54.108Z,34.47
2022-11-27T23:22:24.518Z,35.35
2022-11-27T23:24:56.298Z,46.67
2022-11-27T23:27:26.800Z,38.58
2022-11-27T23:29:57.251Z,39.63
2022-11-27T23:32:27.539Z,37.03
2022-11-27T23:34:58.320Z,36.92
2022-11-27T23:37:29.624Z,37.60
2022-11-27T23:40:00.671Z,46.88
2022-11-27T23:42:31.179Z,48.58
2022-11-27T23:45:01.582Z,47.60
2022-11-27T23:47:33.167Z,88.57
2022-11-27T23:50:03.912Z,58.42
2022-11-27T23:52:34.479Z,41.92
2022-11-27T23:55:05.251Z,40.00
2022-11-27T23:57:36.120Z,38.70
